sensor_id;sensor_type;location;lat;lon;timestamp;P1;durP1;ratioP1;P2;durP2;ratioP2
13552;SDS011;6847;48.830;9.116;2022-08-02T00:00:57;0.10;;;0.10;;
13552;SDS011;6847;48.830;9.116;2022-08-02T00:03:43;0.10;;;0.10;;
13552;SDS011;6847;48.830;9.116;2022-08-02T00:06:32;0.10;;;0.10;;
13552;SDS011;6847;48.830;9.116;2022-08-02T00:09:19;0.17;;;0.17;;
13552;SDS011;6847;48.830;9.116;2022-08-02T00:12:07;0.13;;;0.13;;
13552;SDS011;6847;48.830;9.116;2022-08-02T00:14:53;0.10;;;0.10;;
13552;SDS011;6847;48.830;9.116;2022-08-02T00:17:38;0.10;;;0.10;;
13552;SDS011;6847;48.830;9.116;2022-08-02T00:20:24;0.20;;;0.20;;
13552;SDS011;6847;48.830;9.116;2022-08-02T00:23:09;0.10;;;0.10;;
13552;SDS011;6847;48.830;9.116;2022-08-02T00:25:59;0.10;;;0.10;;
13552;SDS011;6847;48.830;9.116;2022-08-02T00:28:50;0.10;;;0.10;;
13552;SDS011;6847;48.830;9.116;2022-08-02T00:31:35;0.10;;;0.10;;
13552;SDS011;6847;48.830;9.116;2022-08-02T00:34:21;0.10;;;0.10;;
13552;SDS011;6847;48.830;9.116;2022-08-02T00:37:06;0.10;;;0.10;;
13552;SDS011;6847;48.830;9.116;2022-08-02T00:39:51;0.10;;;0.10;;
13552;SDS011;6847;48.830;9.116;2022-08-02T00:42:38;0.10;;;0.10;;
13552;SDS011;6847;48.830;9.116;2022-08-02T00:45:24;0.10;;;0.10;;
13552;SDS011;6847;48.830;9.116;2022-08-02T00:48:09;0.10;;;0.10;;
13552;SDS011;6847;48.830;9.116;2022-08-02T00:50:58;0.10;;;0.10;;
13552;SDS011;6847;48.830;9.116;2022-08-02T00:53:43;0.10;;;0.10;;
13552;SDS011;6847;48.830;9.116;2022-08-02T00:56:29;0.10;;;0.10;;
13552;SDS011;6847;48.830;9.116;2022-08-02T00:59:18;0.10;;;0.10;;
13552;SDS011;6847;48.830;9.116;2022-08-02T01:02:06;0.10;;;0.10;;
13552;SDS011;6847;48.830;9.116;2022-08-02T01:04:52;0.10;;;0.10;;
13552;SDS011;6847;48.830;9.116;2022-08-02T01:07:38;0.10;;;0.10;;
13552;SDS011;6847;48.830;9.116;2022-08-02T01:10:26;0.10;;;0.10;;
13552;SDS011;6847;48.830;9.116;2022-08-02T01:13:11;0.10;;;0.10;;
13552;SDS011;6847;48.830;9.116;2022-08-02T01:16:01;0.10;;;0.10;;
13552;SDS011;6847;48.830;9.116;2022-08-02T01:18:57;0.10;;;0.10;;
13552;SDS011;6847;48.830;9.116;2022-08-02T01:21:48;0.10;;;0.10;;
13552;SDS011;6847;48.830;9.116;2022-08-02T01:24:51;0.10;;;0.10;;
13552;SDS011;6847;48.830;9.116;2022-08-02T01:27:50;0.10;;;0.10;;
13552;SDS011;6847;48.830;9.116;2022-08-02T01:30:56;0.10;;;0.10;;
13552;SDS011;6847;48.830;9.116;2022-08-02T01:33:46;0.10;;;0.10;;
13552;SDS011;6847;48.830;9.116;2022-08-02T01:36:39;0.10;;;0.10;;
13552;SDS011;6847;48.830;9.116;2022-08-02T01:39:30;0.17;;;0.17;;
13552;SDS011;6847;48.830;9.116;2022-08-02T01:42:20;0.10;;;0.10;;
13552;SDS011;6847;48.830;9.116;2022-08-02T01:45:11;0.10;;;0.10;;
13552;SDS011;6847;48.830;9.116;2022-08-02T01:47:59;0.10;;;0.10;;
13552;SDS011;6847;48.830;9.116;2022-08-02T01:50:47;0.10;;;0.10;;
13552;SDS011;6847;48.830;9.116;2022-08-02T01:53:37;0.10;;;0.10;;
13552;SDS011;6847;48.830;9.116;2022-08-02T01:56:28;0.15;;;0.15;;
13552;SDS011;6847;48.830;9.116;2022-08-02T01:59:15;0.10;;;0.10;;
13552;SDS011;6847;48.830;9.116;2022-08-02T02:02:07;0.10;;;0.10;;
13552;SDS011;6847;48.830;9.116;2022-08-02T02:04:55;0.10;;;0.10;;
13552;SDS011;6847;48.830;9.116;2022-08-02T02:07:43;0.10;;;0.10;;
13552;SDS011;6847;48.830;9.116;2022-08-02T02:10:31;0.10;;;0.10;;
13552;SDS011;6847;48.830;9.116;2022-08-02T02:13:18;0.10;;;0.10;;
13552;SDS011;6847;48.830;9.116;2022-08-02T02:16:05;0.17;;;0.17;;
13552;SDS011;6847;48.830;9.116;2022-08-02T02:18:53;0.10;;;0.10;;
13552;SDS011;6847;48.830;9.116;2022-08-02T02:21:39;0.10;;;0.10;;
13552;SDS011;6847;48.830;9.116;2022-08-02T02:24:24;0.10;;;0.10;;
13552;SDS011;6847;48.830;9.116;2022-08-02T02:27:16;0.10;;;0.10;;
13552;SDS011;6847;48.830;9.116;2022-08-02T02:30:02;0.10;;;0.10;;
13552;SDS011;6847;48.830;9.116;2022-08-02T02:32:52;0.10;;;0.10;;
13552;SDS011;6847;48.830;9.116;2022-08-02T02:35:40;0.10;;;0.10;;
13552;SDS011;6847;48.830;9.116;2022-08-02T02:38:29;0.10;;;0.10;;
13552;SDS011;6847;48.830;9.116;2022-08-02T02:41:16;0.10;;;0.10;;
13552;SDS011;6847;48.830;9.116;2022-08-02T02:44:04;0.20;;;0.20;;
13552;SDS011;6847;48.830;9.116;2022-08-02T02:46:53;0.10;;;0.10;;
13552;SDS011;6847;48.830;9.116;2022-08-02T02:49:42;0.10;;;0.10;;
13552;SDS011;6847;48.830;9.116;2022-08-02T02:52:31;0.10;;;0.10;;
13552;SDS011;6847;48.830;9.116;2022-08-02T02:55:18;0.10;;;0.10;;
13552;SDS011;6847;48.830;9.116;2022-08-02T02:58:06;0.10;;;0.10;;
13552;SDS011;6847;48.830;9.116;2022-08-02T03:00:52;0.10;;;0.10;;
13552;SDS011;6847;48.830;9.116;2022-08-02T03:03:55;0.10;;;0.10;;
13552;SDS011;6847;48.830;9.116;2022-08-02T03:06:43;0.10;;;0.10;;
13552;SDS011;6847;48.830;9.116;2022-08-02T03:09:31;0.10;;;0.10;;
13552;SDS011;6847;48.830;9.116;2022-08-02T03:12:17;0.10;;;0.10;;
13552;SDS011;6847;48.830;9.116;2022-08-02T03:15:04;0.10;;;0.10;;
13552;SDS011;6847;48.830;9.116;2022-08-02T03:17:52;0.10;;;0.10;;
13552;SDS011;6847;48.830;9.116;2022-08-02T03:20:37;0.10;;;0.10;;
13552;SDS011;6847;48.830;9.116;2022-08-02T03:23:23;0.10;;;0.10;;
13552;SDS011;6847;48.830;9.116;2022-08-02T03:26:10;0.10;;;0.10;;
13552;SDS011;6847;48.830;9.116;2022-08-02T03:28:56;0.10;;;0.10;;
13552;SDS011;6847;48.830;9.116;2022-08-02T03:31:45;0.10;;;0.10;;
13552;SDS011;6847;48.830;9.116;2022-08-02T03:34:31;0.10;;;0.10;;
13552;SDS011;6847;48.830;9.116;2022-08-02T03:37:17;0.10;;;0.10;;
13552;SDS011;6847;48.830;9.116;2022-08-02T03:40:03;0.10;;;0.10;;
13552;SDS011;6847;48.830;9.116;2022-08-02T03:42:54;0.10;;;0.10;;
13552;SDS011;6847;48.830;9.116;2022-08-02T03:45:43;0.10;;;0.10;;
13552;SDS011;6847;48.830;9.116;2022-08-02T03:48:34;0.10;;;0.10;;
13552;SDS011;6847;48.830;9.116;2022-08-02T03:51:22;0.10;;;0.10;;
13552;SDS011;6847;48.830;9.116;2022-08-02T03:54:07;0.10;;;0.10;;
13552;SDS011;6847;48.830;9.116;2022-08-02T03:56:53;0.10;;;0.10;;
13552;SDS011;6847;48.830;9.116;2022-08-02T03:59:41;0.10;;;0.10;;
13552;SDS011;6847;48.830;9.116;2022-08-02T04:02:27;0.10;;;0.10;;
13552;SDS011;6847;48.830;9.116;2022-08-02T04:05:12;0.10;;;0.10;;
13552;SDS011;6847;48.830;9.116;2022-08-02T04:07:58;0.10;;;0.10;;
13552;SDS011;6847;48.830;9.116;2022-08-02T04:10:46;0.20;;;0.20;;
13552;SDS011;6847;48.830;9.116;2022-08-02T04:13:49;0.10;;;0.10;;
13552;SDS011;6847;48.830;9.116;2022-08-02T04:16:41;0.10;;;0.10;;
13552;SDS011;6847;48.830;9.116;2022-08-02T04:19:31;0.10;;;0.10;;
13552;SDS011;6847;48.830;9.116;2022-08-02T04:22:23;0.10;;;0.10;;
13552;SDS011;6847;48.830;9.116;2022-08-02T04:25:14;0.10;;;0.10;;
13552;SDS011;6847;48.830;9.116;2022-08-02T04:28:02;0.10;;;0.10;;
13552;SDS011;6847;48.830;9.116;2022-08-02T04:30:48;0.10;;;0.10;;
13552;SDS011;6847;48.830;9.116;2022-08-02T04:33:38;0.10;;;0.10;;
13552;SDS011;6847;48.830;9.116;2022-08-02T04:36:26;0.10;;;0.10;;
13552;SDS011;6847;48.830;9.116;2022-08-02T04:39:17;0.10;;;0.10;;
13552;SDS011;6847;48.830;9.116;2022-08-02T04:42:07;0.10;;;0.10;;
13552;SDS011;6847;48.830;9.116;2022-08-02T04:45:04;0.10;;;0.10;;
13552;SDS011;6847;48.830;9.116;2022-08-02T04:47:51;0.10;;;0.10;;
13552;SDS011;6847;48.830;9.116;2022-08-02T04:50:38;0.10;;;0.10;;
13552;SDS011;6847;48.830;9.116;2022-08-02T04:53:28;0.10;;;0.10;;
13552;SDS011;6847;48.830;9.116;2022-08-02T04:56:17;0.10;;;0.10;;
13552;SDS011;6847;48.830;9.116;2022-08-02T04:59:04;0.10;;;0.10;;
13552;SDS011;6847;48.830;9.116;2022-08-02T05:01:50;1.02;;;0.30;;
13552;SDS011;6847;48.830;9.116;2022-08-02T05:04:36;0.10;;;0.10;;
13552;SDS011;6847;48.830;9.116;2022-08-02T05:07:26;0.10;;;0.10;;
13552;SDS011;6847;48.830;9.116;2022-08-02T05:10:15;0.10;;;0.10;;
13552;SDS011;6847;48.830;9.116;2022-08-02T05:13:02;0.10;;;0.10;;
13552;SDS011;6847;48.830;9.116;2022-08-02T05:15:51;0.10;;;0.10;;
13552;SDS011;6847;48.830;9.116;2022-08-02T05:18:41;0.10;;;0.10;;
13552;SDS011;6847;48.830;9.116;2022-08-02T05:21:27;0.10;;;0.10;;
13552;SDS011;6847;48.830;9.116;2022-08-02T05:24:15;0.10;;;0.10;;
13552;SDS011;6847;48.830;9.116;2022-08-02T05:27:01;0.10;;;0.10;;
13552;SDS011;6847;48.830;9.116;2022-08-02T05:29:49;0.10;;;0.10;;
13552;SDS011;6847;48.830;9.116;2022-08-02T05:32:44;0.10;;;0.10;;
13552;SDS011;6847;48.830;9.116;2022-08-02T05:35:31;0.10;;;0.10;;
13552;SDS011;6847;48.830;9.116;2022-08-02T05:38:18;0.10;;;0.10;;
13552;SDS011;6847;48.830;9.116;2022-08-02T05:41:05;0.20;;;0.20;;
13552;SDS011;6847;48.830;9.116;2022-08-02T05:43:52;0.10;;;0.10;;
13552;SDS011;6847;48.830;9.116;2022-08-02T05:46:38;0.10;;;0.10;;
13552;SDS011;6847;48.830;9.116;2022-08-02T05:49:25;0.10;;;0.10;;
13552;SDS011;6847;48.830;9.116;2022-08-02T05:52:13;0.10;;;0.10;;
13552;SDS011;6847;48.830;9.116;2022-08-02T05:55:03;0.10;;;0.10;;
13552;SDS011;6847;48.830;9.116;2022-08-02T05:57:56;0.10;;;0.10;;
13552;SDS011;6847;48.830;9.116;2022-08-02T06:00:51;0.10;;;0.10;;
13552;SDS011;6847;48.830;9.116;2022-08-02T06:03:41;0.10;;;0.10;;
13552;SDS011;6847;48.830;9.116;2022-08-02T06:06:35;0.10;;;0.10;;
13552;SDS011;6847;48.830;9.116;2022-08-02T06:09:22;0.10;;;0.10;;
13552;SDS011;6847;48.830;9.116;2022-08-02T06:12:10;0.10;;;0.10;;
13552;SDS011;6847;48.830;9.116;2022-08-02T06:15:02;0.10;;;0.10;;
13552;SDS011;6847;48.830;9.116;2022-08-02T06:17:48;0.10;;;0.10;;
13552;SDS011;6847;48.830;9.116;2022-08-02T06:20:35;0.10;;;0.10;;
13552;SDS011;6847;48.830;9.116;2022-08-02T06:23:21;0.10;;;0.10;;
13552;SDS011;6847;48.830;9.116;2022-08-02T06:26:07;0.10;;;0.10;;
13552;SDS011;6847;48.830;9.116;2022-08-02T06:28:54;0.13;;;0.13;;
13552;SDS011;6847;48.830;9.116;2022-08-02T06:31:42;0.10;;;0.10;;
13552;SDS011;6847;48.830;9.116;2022-08-02T06:34:29;0.10;;;0.10;;
13552;SDS011;6847;48.830;9.116;2022-08-02T06:37:17;0.10;;;0.10;;
13552;SDS011;6847;48.830;9.116;2022-08-02T06:40:12;0.10;;;0.10;;
13552;SDS011;6847;48.830;9.116;2022-08-02T06:43:09;0.10;;;0.10;;
13552;SDS011;6847;48.830;9.116;2022-08-02T06:45:56;0.10;;;0.10;;
13552;SDS011;6847;48.830;9.116;2022-08-02T06:48:43;0.10;;;0.10;;
13552;SDS011;6847;48.830;9.116;2022-08-02T06:51:29;0.10;;;0.10;;
13552;SDS011;6847;48.830;9.116;2022-08-02T06:54:15;0.10;;;0.10;;
13552;SDS011;6847;48.830;9.116;2022-08-02T06:57:04;0.10;;;0.10;;
13552;SDS011;6847;48.830;9.116;2022-08-02T06:59:53;0.10;;;0.10;;
13552;SDS011;6847;48.830;9.116;2022-08-02T07:02:39;0.10;;;0.10;;
13552;SDS011;6847;48.830;9.116;2022-08-02T07:05:27;0.10;;;0.10;;
13552;SDS011;6847;48.830;9.116;2022-08-02T07:08:12;0.10;;;0.10;;
13552;SDS011;6847;48.830;9.116;2022-08-02T07:10:59;0.10;;;0.10;;
13552;SDS011;6847;48.830;9.116;2022-08-02T07:13:48;0.17;;;0.17;;
13552;SDS011;6847;48.830;9.116;2022-08-02T07:16:34;0.10;;;0.10;;
13552;SDS011;6847;48.830;9.116;2022-08-02T07:19:19;0.10;;;0.10;;
13552;SDS011;6847;48.830;9.116;2022-08-02T07:22:06;0.10;;;0.10;;
13552;SDS011;6847;48.830;9.116;2022-08-02T07:24:52;0.10;;;0.10;;
13552;SDS011;6847;48.830;9.116;2022-08-02T07:27:39;0.10;;;0.10;;
13552;SDS011;6847;48.830;9.116;2022-08-02T07:30:25;0.10;;;0.10;;
13552;SDS011;6847;48.830;9.116;2022-08-02T07:33:10;0.10;;;0.10;;
13552;SDS011;6847;48.830;9.116;2022-08-02T07:35:56;0.10;;;0.10;;
13552;SDS011;6847;48.830;9.116;2022-08-02T07:38:43;0.10;;;0.10;;
13552;SDS011;6847;48.830;9.116;2022-08-02T07:41:28;0.10;;;0.10;;
13552;SDS011;6847;48.830;9.116;2022-08-02T07:44:14;0.10;;;0.10;;
13552;SDS011;6847;48.830;9.116;2022-08-02T07:46:59;0.20;;;0.20;;
13552;SDS011;6847;48.830;9.116;2022-08-02T07:49:48;0.10;;;0.10;;
13552;SDS011;6847;48.830;9.116;2022-08-02T07:52:33;0.20;;;0.20;;
13552;SDS011;6847;48.830;9.116;2022-08-02T07:55:21;0.10;;;0.10;;
13552;SDS011;6847;48.830;9.116;2022-08-02T07:58:08;0.20;;;0.20;;
13552;SDS011;6847;48.830;9.116;2022-08-02T08:00:55;0.10;;;0.10;;
13552;SDS011;6847;48.830;9.116;2022-08-02T08:03:40;0.20;;;0.20;;
13552;SDS011;6847;48.830;9.116;2022-08-02T08:06:26;0.13;;;0.13;;
13552;SDS011;6847;48.830;9.116;2022-08-02T08:09:11;0.10;;;0.10;;
13552;SDS011;6847;48.830;9.116;2022-08-02T08:11:59;0.10;;;0.10;;
13552;SDS011;6847;48.830;9.116;2022-08-02T08:14:49;0.20;;;0.20;;
13552;SDS011;6847;48.830;9.116;2022-08-02T08:17:37;0.10;;;0.10;;
13552;SDS011;6847;48.830;9.116;2022-08-02T08:20:24;0.20;;;0.20;;
13552;SDS011;6847;48.830;9.116;2022-08-02T08:23:13;0.30;;;0.30;;
13552;SDS011;6847;48.830;9.116;2022-08-02T08:25:59;0.30;;;0.30;;
13552;SDS011;6847;48.830;9.116;2022-08-02T08:28:46;0.20;;;0.20;;
13552;SDS011;6847;48.830;9.116;2022-08-02T08:31:32;0.20;;;0.20;;
13552;SDS011;6847;48.830;9.116;2022-08-02T08:34:17;0.20;;;0.20;;
13552;SDS011;6847;48.830;9.116;2022-08-02T08:37:08;0.20;;;0.20;;
13552;SDS011;6847;48.830;9.116;2022-08-02T08:39:56;0.17;;;0.17;;
13552;SDS011;6847;48.830;9.116;2022-08-02T08:42:45;0.15;;;0.15;;
13552;SDS011;6847;48.830;9.116;2022-08-02T08:45:33;0.20;;;0.20;;
13552;SDS011;6847;48.830;9.116;2022-08-02T08:48:20;0.13;;;0.13;;
13552;SDS011;6847;48.830;9.116;2022-08-02T08:51:10;0.20;;;0.20;;
13552;SDS011;6847;48.830;9.116;2022-08-02T08:54:01;0.20;;;0.20;;
13552;SDS011;6847;48.830;9.116;2022-08-02T08:56:53;0.20;;;0.20;;
13552;SDS011;6847;48.830;9.116;2022-08-02T08:59:41;0.20;;;0.20;;
13552;SDS011;6847;48.830;9.116;2022-08-02T09:02:31;0.20;;;0.20;;
13552;SDS011;6847;48.830;9.116;2022-08-02T09:05:19;0.30;;;0.30;;
13552;SDS011;6847;48.830;9.116;2022-08-02T09:08:06;0.20;;;0.20;;
13552;SDS011;6847;48.830;9.116;2022-08-02T09:10:52;0.30;;;0.30;;
13552;SDS011;6847;48.830;9.116;2022-08-02T09:13:38;0.20;;;0.20;;
13552;SDS011;6847;48.830;9.116;2022-08-02T09:16:33;0.30;;;0.30;;
13552;SDS011;6847;48.830;9.116;2022-08-02T09:19:22;0.30;;;0.30;;
13552;SDS011;6847;48.830;9.116;2022-08-02T09:22:12;0.20;;;0.20;;
13552;SDS011;6847;48.830;9.116;2022-08-02T09:24:57;0.20;;;0.20;;
13552;SDS011;6847;48.830;9.116;2022-08-02T09:27:47;0.20;;;0.20;;
13552;SDS011;6847;48.830;9.116;2022-08-02T09:30:40;0.30;;;0.30;;
13552;SDS011;6847;48.830;9.116;2022-08-02T09:33:26;0.20;;;0.20;;
13552;SDS011;6847;48.830;9.116;2022-08-02T09:36:16;0.30;;;0.30;;
13552;SDS011;6847;48.830;9.116;2022-08-02T09:39:03;0.40;;;0.40;;
13552;SDS011;6847;48.830;9.116;2022-08-02T09:41:49;0.30;;;0.30;;
13552;SDS011;6847;48.830;9.116;2022-08-02T09:44:35;0.30;;;0.30;;
13552;SDS011;6847;48.830;9.116;2022-08-02T09:47:21;0.20;;;0.20;;
13552;SDS011;6847;48.830;9.116;2022-08-02T09:50:08;0.30;;;0.30;;
13552;SDS011;6847;48.830;9.116;2022-08-02T09:52:56;0.30;;;0.30;;
13552;SDS011;6847;48.830;9.116;2022-08-02T09:55:41;0.30;;;0.30;;
13552;SDS011;6847;48.830;9.116;2022-08-02T09:58:27;0.30;;;0.30;;
13552;SDS011;6847;48.830;9.116;2022-08-02T10:01:15;0.30;;;0.30;;
13552;SDS011;6847;48.830;9.116;2022-08-02T10:04:03;0.30;;;0.30;;
13552;SDS011;6847;48.830;9.116;2022-08-02T10:06:51;0.32;;;0.32;;
13552;SDS011;6847;48.830;9.116;2022-08-02T10:09:38;0.20;;;0.20;;
13552;SDS011;6847;48.830;9.116;2022-08-02T10:12:28;0.20;;;0.20;;
13552;SDS011;6847;48.830;9.116;2022-08-02T10:15:14;0.50;;;0.50;;
13552;SDS011;6847;48.830;9.116;2022-08-02T10:18:01;0.35;;;0.35;;
13552;SDS011;6847;48.830;9.116;2022-08-02T10:21:01;0.40;;;0.40;;
13552;SDS011;6847;48.830;9.116;2022-08-02T10:23:48;0.30;;;0.30;;
13552;SDS011;6847;48.830;9.116;2022-08-02T10:26:38;0.32;;;0.32;;
13552;SDS011;6847;48.830;9.116;2022-08-02T10:29:28;0.30;;;0.30;;
13552;SDS011;6847;48.830;9.116;2022-08-02T10:32:21;0.40;;;0.40;;
13552;SDS011;6847;48.830;9.116;2022-08-02T10:35:14;0.30;;;0.30;;
13552;SDS011;6847;48.830;9.116;2022-08-02T10:38:05;0.50;;;0.50;;
13552;SDS011;6847;48.830;9.116;2022-08-02T10:40:55;0.32;;;0.32;;
13552;SDS011;6847;48.830;9.116;2022-08-02T10:43:49;0.38;;;0.38;;
13552;SDS011;6847;48.830;9.116;2022-08-02T10:46:37;0.40;;;0.40;;
13552;SDS011;6847;48.830;9.116;2022-08-02T10:49:28;0.40;;;0.40;;
13552;SDS011;6847;48.830;9.116;2022-08-02T10:52:15;0.40;;;0.40;;
13552;SDS011;6847;48.830;9.116;2022-08-02T10:55:08;0.30;;;0.30;;
13552;SDS011;6847;48.830;9.116;2022-08-02T11:01:02;0.40;;;0.40;;
13552;SDS011;6847;48.830;9.116;2022-08-02T11:03:49;0.32;;;0.32;;
13552;SDS011;6847;48.830;9.116;2022-08-02T11:09:57;0.50;;;0.50;;
13552;SDS011;6847;48.830;9.116;2022-08-02T11:13:00;0.43;;;0.43;;
13552;SDS011;6847;48.830;9.116;2022-08-02T11:15:55;0.40;;;0.40;;
13552;SDS011;6847;48.830;9.116;2022-08-02T11:21:58;0.30;;;0.30;;
13552;SDS011;6847;48.830;9.116;2022-08-02T11:24:44;0.20;;;0.20;;
13552;SDS011;6847;48.830;9.116;2022-08-02T11:27:30;0.30;;;0.30;;
13552;SDS011;6847;48.830;9.116;2022-08-02T11:30:16;0.22;;;0.22;;
13552;SDS011;6847;48.830;9.116;2022-08-02T11:33:02;0.20;;;0.20;;
13552;SDS011;6847;48.830;9.116;2022-08-02T11:35:51;0.30;;;0.30;;
13552;SDS011;6847;48.830;9.116;2022-08-02T11:38:44;0.22;;;0.22;;
13552;SDS011;6847;48.830;9.116;2022-08-02T11:41:31;0.22;;;0.22;;
13552;SDS011;6847;48.830;9.116;2022-08-02T11:44:21;0.40;;;0.40;;
13552;SDS011;6847;48.830;9.116;2022-08-02T11:47:29;0.20;;;0.20;;
13552;SDS011;6847;48.830;9.116;2022-08-02T11:50:15;0.20;;;0.20;;
13552;SDS011;6847;48.830;9.116;2022-08-02T11:53:12;0.30;;;0.30;;
13552;SDS011;6847;48.830;9.116;2022-08-02T11:56:05;0.20;;;0.20;;
13552;SDS011;6847;48.830;9.116;2022-08-02T12:01:55;0.22;;;0.22;;
13552;SDS011;6847;48.830;9.116;2022-08-02T12:04:40;0.30;;;0.30;;
13552;SDS011;6847;48.830;9.116;2022-08-02T12:07:26;0.22;;;0.22;;
13552;SDS011;6847;48.830;9.116;2022-08-02T12:10:15;0.47;;;0.47;;
13552;SDS011;6847;48.830;9.116;2022-08-02T12:13:04;0.30;;;0.30;;
13552;SDS011;6847;48.830;9.116;2022-08-02T12:15:52;0.40;;;0.40;;
13552;SDS011;6847;48.830;9.116;2022-08-02T12:18:58;0.40;;;0.40;;
13552;SDS011;6847;48.830;9.116;2022-08-02T12:22:08;0.38;;;0.38;;
13552;SDS011;6847;48.830;9.116;2022-08-02T12:24:56;0.30;;;0.30;;
13552;SDS011;6847;48.830;9.116;2022-08-02T12:27:46;0.40;;;0.40;;
13552;SDS011;6847;48.830;9.116;2022-08-02T12:30:46;0.50;;;0.50;;
13552;SDS011;6847;48.830;9.116;2022-08-02T12:33:43;0.35;;;0.35;;
13552;SDS011;6847;48.830;9.116;2022-08-02T12:36:32;0.55;;;0.55;;
13552;SDS011;6847;48.830;9.116;2022-08-02T12:39:19;0.40;;;0.40;;
13552;SDS011;6847;48.830;9.116;2022-08-02T12:42:05;0.40;;;0.40;;
13552;SDS011;6847;48.830;9.116;2022-08-02T12:44:54;0.40;;;0.40;;
13552;SDS011;6847;48.830;9.116;2022-08-02T12:47:45;0.40;;;0.40;;
13552;SDS011;6847;48.830;9.116;2022-08-02T12:50:35;0.50;;;0.50;;
13552;SDS011;6847;48.830;9.116;2022-08-02T12:53:35;0.40;;;0.40;;
13552;SDS011;6847;48.830;9.116;2022-08-02T12:56:28;0.35;;;0.35;;
13552;SDS011;6847;48.830;9.116;2022-08-02T12:59:34;0.30;;;0.30;;
13552;SDS011;6847;48.830;9.116;2022-08-02T13:02:24;0.32;;;0.32;;
13552;SDS011;6847;48.830;9.116;2022-08-02T13:05:10;0.30;;;0.30;;
13552;SDS011;6847;48.830;9.116;2022-08-02T13:07:57;0.40;;;0.40;;
13552;SDS011;6847;48.830;9.116;2022-08-02T13:10:44;0.35;;;0.35;;
13552;SDS011;6847;48.830;9.116;2022-08-02T13:13:29;0.30;;;0.30;;
13552;SDS011;6847;48.830;9.116;2022-08-02T13:16:20;0.30;;;0.30;;
13552;SDS011;6847;48.830;9.116;2022-08-02T13:19:08;0.20;;;0.20;;
13552;SDS011;6847;48.830;9.116;2022-08-02T13:21:56;0.40;;;0.40;;
13552;SDS011;6847;48.830;9.116;2022-08-02T13:24:42;0.30;;;0.30;;
13552;SDS011;6847;48.830;9.116;2022-08-02T13:27:28;0.40;;;0.40;;
13552;SDS011;6847;48.830;9.116;2022-08-02T13:30:13;0.47;;;0.47;;
13552;SDS011;6847;48.830;9.116;2022-08-02T13:33:01;0.55;;;0.55;;
13552;SDS011;6847;48.830;9.116;2022-08-02T13:35:55;0.40;;;0.40;;
13552;SDS011;6847;48.830;9.116;2022-08-02T13:38:41;0.40;;;0.40;;
13552;SDS011;6847;48.830;9.116;2022-08-02T13:41:27;0.40;;;0.40;;
13552;SDS011;6847;48.830;9.116;2022-08-02T13:44:12;0.32;;;0.32;;
13552;SDS011;6847;48.830;9.116;2022-08-02T13:47:01;0.52;;;0.52;;
13552;SDS011;6847;48.830;9.116;2022-08-02T13:49:47;1.83;;;1.73;;
13552;SDS011;6847;48.830;9.116;2022-08-02T13:52:39;0.40;;;0.40;;
13552;SDS011;6847;48.830;9.116;2022-08-02T13:55:26;0.40;;;0.40;;
13552;SDS011;6847;48.830;9.116;2022-08-02T13:58:12;0.50;;;0.50;;
13552;SDS011;6847;48.830;9.116;2022-08-02T14:01:00;0.50;;;0.50;;
13552;SDS011;6847;48.830;9.116;2022-08-02T14:03:47;0.47;;;0.47;;
13552;SDS011;6847;48.830;9.116;2022-08-02T14:06:42;0.40;;;0.40;;
13552;SDS011;6847;48.830;9.116;2022-08-02T14:09:30;0.40;;;0.40;;
13552;SDS011;6847;48.830;9.116;2022-08-02T14:12:16;0.35;;;0.35;;
13552;SDS011;6847;48.830;9.116;2022-08-02T14:15:01;0.38;;;0.38;;
13552;SDS011;6847;48.830;9.116;2022-08-02T14:17:48;1.27;;;1.25;;
13552;SDS011;6847;48.830;9.116;2022-08-02T14:20:33;4.88;;;2.60;;
13552;SDS011;6847;48.830;9.116;2022-08-02T14:23:18;0.38;;;0.38;;
13552;SDS011;6847;48.830;9.116;2022-08-02T14:26:29;0.45;;;0.45;;
13552;SDS011;6847;48.830;9.116;2022-08-02T14:29:15;0.30;;;0.30;;
13552;SDS011;6847;48.830;9.116;2022-08-02T14:32:01;0.40;;;0.40;;
13552;SDS011;6847;48.830;9.116;2022-08-02T14:34:46;0.40;;;0.40;;
13552;SDS011;6847;48.830;9.116;2022-08-02T14:37:32;0.60;;;0.60;;
13552;SDS011;6847;48.830;9.116;2022-08-02T14:40:19;0.60;;;0.60;;
13552;SDS011;6847;48.830;9.116;2022-08-02T14:43:07;0.50;;;0.50;;
13552;SDS011;6847;48.830;9.116;2022-08-02T14:46:15;0.60;;;0.60;;
13552;SDS011;6847;48.830;9.116;2022-08-02T14:49:01;0.40;;;0.40;;
13552;SDS011;6847;48.830;9.116;2022-08-02T14:51:47;0.50;;;0.50;;
13552;SDS011;6847;48.830;9.116;2022-08-02T14:54:37;0.50;;;0.50;;
13552;SDS011;6847;48.830;9.116;2022-08-02T14:57:25;0.60;;;0.60;;
13552;SDS011;6847;48.830;9.116;2022-08-02T15:00:13;0.40;;;0.40;;
13552;SDS011;6847;48.830;9.116;2022-08-02T15:03:02;0.68;;;0.68;;
13552;SDS011;6847;48.830;9.116;2022-08-02T15:05:50;0.50;;;0.50;;
13552;SDS011;6847;48.830;9.116;2022-08-02T15:08:35;0.70;;;0.70;;
13552;SDS011;6847;48.830;9.116;2022-08-02T15:11:21;0.55;;;0.55;;
13552;SDS011;6847;48.830;9.116;2022-08-02T15:14:09;0.77;;;0.77;;
13552;SDS011;6847;48.830;9.116;2022-08-02T15:16:58;0.50;;;0.50;;
13552;SDS011;6847;48.830;9.116;2022-08-02T15:19:46;0.70;;;0.70;;
13552;SDS011;6847;48.830;9.116;2022-08-02T15:22:32;0.68;;;0.68;;
13552;SDS011;6847;48.830;9.116;2022-08-02T15:25:18;0.68;;;0.68;;
13552;SDS011;6847;48.830;9.116;2022-08-02T15:28:06;0.43;;;0.43;;
13552;SDS011;6847;48.830;9.116;2022-08-02T15:30:52;0.50;;;0.50;;
13552;SDS011;6847;48.830;9.116;2022-08-02T15:33:39;0.80;;;0.80;;
13552;SDS011;6847;48.830;9.116;2022-08-02T15:36:25;0.60;;;0.60;;
13552;SDS011;6847;48.830;9.116;2022-08-02T15:39:15;0.50;;;0.50;;
13552;SDS011;6847;48.830;9.116;2022-08-02T15:42:00;0.60;;;0.60;;
13552;SDS011;6847;48.830;9.116;2022-08-02T15:44:46;0.65;;;0.65;;
13552;SDS011;6847;48.830;9.116;2022-08-02T15:47:31;0.60;;;0.60;;
13552;SDS011;6847;48.830;9.116;2022-08-02T15:50:18;0.70;;;0.70;;
13552;SDS011;6847;48.830;9.116;2022-08-02T15:53:04;0.60;;;0.60;;
13552;SDS011;6847;48.830;9.116;2022-08-02T15:55:50;0.60;;;0.60;;
13552;SDS011;6847;48.830;9.116;2022-08-02T15:58:36;0.80;;;0.80;;
13552;SDS011;6847;48.830;9.116;2022-08-02T16:01:21;0.60;;;0.60;;
13552;SDS011;6847;48.830;9.116;2022-08-02T16:04:08;0.55;;;0.55;;
13552;SDS011;6847;48.830;9.116;2022-08-02T16:06:55;0.60;;;0.60;;
13552;SDS011;6847;48.830;9.116;2022-08-02T16:09:40;0.65;;;0.65;;
13552;SDS011;6847;48.830;9.116;2022-08-02T16:12:25;0.55;;;0.55;;
13552;SDS011;6847;48.830;9.116;2022-08-02T16:15:11;0.50;;;0.50;;
13552;SDS011;6847;48.830;9.116;2022-08-02T16:17:56;0.50;;;0.50;;
13552;SDS011;6847;48.830;9.116;2022-08-02T16:20:42;0.50;;;0.50;;
13552;SDS011;6847;48.830;9.116;2022-08-02T16:26:33;0.80;;;0.80;;
13552;SDS011;6847;48.830;9.116;2022-08-02T16:29:18;0.50;;;0.50;;
13552;SDS011;6847;48.830;9.116;2022-08-02T16:32:05;0.75;;;0.75;;
13552;SDS011;6847;48.830;9.116;2022-08-02T16:34:50;0.50;;;0.50;;
13552;SDS011;6847;48.830;9.116;2022-08-02T16:37:35;0.57;;;0.57;;
13552;SDS011;6847;48.830;9.116;2022-08-02T16:40:22;0.50;;;0.50;;
13552;SDS011;6847;48.830;9.116;2022-08-02T16:43:08;0.70;;;0.70;;
13552;SDS011;6847;48.830;9.116;2022-08-02T16:45:53;2.25;;;0.70;;
13552;SDS011;6847;48.830;9.116;2022-08-02T16:48:39;0.50;;;0.50;;
13552;SDS011;6847;48.830;9.116;2022-08-02T16:51:25;0.40;;;0.40;;
13552;SDS011;6847;48.830;9.116;2022-08-02T16:54:13;0.50;;;0.50;;
13552;SDS011;6847;48.830;9.116;2022-08-02T16:56:59;0.70;;;0.70;;
13552;SDS011;6847;48.830;9.116;2022-08-02T16:59:49;0.60;;;0.60;;
13552;SDS011;6847;48.830;9.116;2022-08-02T17:02:35;0.50;;;0.50;;
13552;SDS011;6847;48.830;9.116;2022-08-02T17:05:22;0.57;;;0.57;;
13552;SDS011;6847;48.830;9.116;2022-08-02T17:08:08;0.55;;;0.55;;
13552;SDS011;6847;48.830;9.116;2022-08-02T17:10:54;0.50;;;0.50;;
13552;SDS011;6847;48.830;9.116;2022-08-02T17:13:41;0.50;;;0.50;;
13552;SDS011;6847;48.830;9.116;2022-08-02T17:16:26;0.50;;;0.50;;
13552;SDS011;6847;48.830;9.116;2022-08-02T17:19:15;0.50;;;0.50;;
13552;SDS011;6847;48.830;9.116;2022-08-02T17:22:00;0.40;;;0.40;;
13552;SDS011;6847;48.830;9.116;2022-08-02T17:24:49;0.40;;;0.40;;